Newberry, SC (29108)

10:58 AM EST on December 08, 2016 (GMT -0500)
Newberry | | Change Station

Elev 568 ft 34.31 °N, 81.64 °W | Updated 23 minutes ago

Overcast
Overcast
46 °F
Feels Like 45 °F
N
4
Wind Variable Wind from NW

Today
High -- | Low -- °F
--% Chance of Precip.
Yesterday
High -- | Low -- °F
Precip. -- in
Pressure 30.18 in
Visibility 7.0 miles
Clouds Overcast 700 ft
Windchill 45 °F
Dew Point 46 °F
Humidity 100%
Rainfall 0.00 in
Snow Depth Not available.
7:20 AM 5:16 PM
Waxing Gibbous, 64% visible
METAR KEOE 081535Z AUTO 31003KT 7SM OVC007 08/08 A3018 RMK AO2
Pressure 30.18 in
Visibility 7.0 miles
Clouds Overcast 700 ft
Windchill 45 °F
Dew Point 46 °F
Humidity 100%
Rainfall 0.00 in
Snow Depth Not available.
7:20 AM 5:16 PM
Waxing Gibbous, 64% visible
METAR KEOE 081535Z AUTO 31003KT 7SM OVC007 08/08 A3018 RMK AO2

10-Day Weather Forecast

Almanac

Astronomy

Dec. 08, 2016 Rise Set
Actual Time
Civil Twilight
Nautical Twilight
Astronomical Twilight
Moon
Length of Visible Light
Length of Day
Tomorrow will be .
, % of the Moon is Illuminated

Today's Extremes

State Highs State Lows

Community

WunderPhotos

Upload Photos

1,956,274 photos uploaded!

WunderBlog® & News

Nearby

Air Quality

  Air Quality AQ Index Pollutant
Not available.

Snow Depth

Station Depth Elevation

Earthquake Activity

City Distance Mag. Time & Date
Minimum magnitude displayed is 2.5.

Coastal Water Temperatures

Place Temperature

Stations

Nearby Weather Stations

Station Location Temp. Windchill Dew Point Humidity Wind Precip. Elev Updated Type
                   

Watches & Warnings

There are currently no watches in effect.